createdAt,value
2017-09-22T00:02:27.518Z,92.00
2017-09-22T00:05:29.862Z,91.90
2017-09-22T00:08:31.815Z,91.90
2017-09-22T00:11:34.209Z,92.00
2017-09-22T00:14:36.265Z,92.00
2017-09-22T00:17:38.608Z,92.10
2017-09-22T00:20:40.943Z,92.20
2017-09-22T00:23:43.287Z,92.20
2017-09-22T00:26:45.347Z,92.30
2017-09-22T00:29:47.734Z,92.30
2017-09-22T00:32:49.771Z,92.30
2017-09-22T00:35:52.071Z,92.70
2017-09-22T00:38:54.008Z,92.50
2017-09-22T00:41:57.406Z,92.60
2017-09-22T00:44:59.368Z,92.90
2017-09-22T00:48:02.491Z,92.70
2017-09-22T00:51:04.477Z,92.70
2017-09-22T00:54:07.610Z,92.80
2017-09-22T00:57:09.552Z,92.90
2017-09-22T01:00:11.839Z,92.90
2017-09-22T01:03:14.844Z,92.90
2017-09-22T01:06:17.949Z,93.00
2017-09-22T01:09:19.892Z,92.90
2017-09-22T01:12:22.197Z,92.90
2017-09-22T01:15:24.215Z,92.80
2017-09-22T01:18:26.542Z,92.90
2017-09-22T01:21:28.504Z,92.90
2017-09-22T01:24:30.878Z,93.00
2017-09-22T01:27:33.749Z,93.00
2017-09-22T01:30:36.090Z,93.00
2017-09-22T01:33:38.446Z,93.10
2017-09-22T01:36:40.816Z,93.10
2017-09-22T01:39:42.748Z,93.10
2017-09-22T01:42:45.107Z,93.10
2017-09-22T01:45:47.079Z,93.00
2017-09-22T01:48:50.400Z,93.00
2017-09-22T01:51:53.203Z,93.00
2017-09-22T01:54:55.606Z,93.00
2017-09-22T01:57:57.623Z,93.00
2017-09-22T02:00:59.963Z,93.00
2017-09-22T02:04:02.020Z,93.00
2017-09-22T02:07:04.372Z,92.90
2017-09-22T02:10:06.395Z,92.90
2017-09-22T02:13:09.523Z,93.00
2017-09-22T02:16:11.568Z,93.00
2017-09-22T02:19:13.935Z,93.00
2017-09-22T02:22:16.028Z,93.00
2017-09-22T02:25:19.163Z,93.00
2017-09-22T02:28:21.204Z,93.00
2017-09-22T02:31:23.544Z,93.00
2017-09-22T02:34:25.600Z,93.00
2017-09-22T02:37:27.862Z,93.10
2017-09-22T02:40:29.901Z,93.10
2017-09-22T02:43:32.277Z,93.00
2017-09-22T02:46:34.411Z,93.00
2017-09-22T02:49:36.775Z,93.00
2017-09-22T02:52:38.922Z,93.00
2017-09-22T02:55:41.292Z,92.90
2017-09-22T02:58:43.219Z,93.20
2017-09-22T03:01:45.615Z,92.90
2017-09-22T03:04:47.543Z,92.80
2017-09-22T03:07:49.825Z,92.80
2017-09-22T03:10:51.845Z,92.80
2017-09-22T03:13:54.196Z,92.80
2017-09-22T03:16:56.247Z,92.80
2017-09-22T03:19:58.622Z,92.90
2017-09-22T03:23:00.659Z,92.90
2017-09-22T03:26:03.017Z,92.90
2017-09-22T03:29:04.960Z,92.90
2017-09-22T03:32:07.423Z,93.00
2017-09-22T03:35:09.364Z,93.00
2017-09-22T03:38:11.727Z,93.00
2017-09-22T03:41:13.659Z,93.00
2017-09-22T03:44:16.045Z,93.10
2017-09-22T03:47:18.080Z,93.10
2017-09-22T03:50:20.459Z,93.10
2017-09-22T03:53:22.591Z,93.20
2017-09-22T03:56:24.953Z,93.20
2017-09-22T03:59:26.889Z,93.30
2017-09-22T04:02:29.256Z,93.30
2017-09-22T04:05:31.183Z,93.30
2017-09-22T04:08:34.280Z,93.30
2017-09-22T04:11:36.237Z,93.30
2017-09-22T04:14:38.657Z,93.30
2017-09-22T04:17:41.455Z,93.30
2017-09-22T04:20:43.812Z,93.30
2017-09-22T04:23:45.757Z,93.20
2017-09-22T04:26:48.120Z,93.20
2017-09-22T04:29:50.048Z,93.20
2017-09-22T04:32:52.440Z,93.40
2017-09-22T04:35:54.377Z,93.10
2017-09-22T04:38:56.731Z,93.10
2017-09-22T04:41:58.673Z,93.10
2017-09-22T04:45:01.035Z,93.10
2017-09-22T04:48:02.958Z,93.10
2017-09-22T04:51:05.331Z,93.10
2017-09-22T04:54:07.275Z,93.10
2017-09-22T04:57:09.534Z,93.10
2017-09-22T05:00:11.458Z,93.20
2017-09-22T05:03:14.570Z,93.20
2017-09-22T05:06:16.611Z,93.20
2017-09-22T05:09:19.018Z,93.30
2017-09-22T05:12:21.031Z,93.30
2017-09-22T05:15:23.593Z,93.30
2017-09-22T05:18:25.528Z,93.30
2017-09-22T05:21:27.897Z,93.30
2017-09-22T05:24:29.953Z,93.20
2017-09-22T05:27:32.292Z,93.20
2017-09-22T05:30:34.228Z,93.10
2017-09-22T05:33:36.611Z,93.10
2017-09-22T05:36:38.557Z,93.10
2017-09-22T05:39:40.866Z,93.10
2017-09-22T05:42:43.163Z,93.10
2017-09-22T05:45:45.457Z,92.90
2017-09-22T05:48:47.460Z,93.20
2017-09-22T05:51:49.710Z,93.20
2017-09-22T05:54:51.689Z,93.20
2017-09-22T05:57:54.046Z,93.10
2017-09-22T06:00:56.074Z,93.10
2017-09-22T06:03:58.342Z,93.00
2017-09-22T06:07:00.281Z,93.00
2017-09-22T06:10:02.635Z,92.40
2017-09-22T06:13:04.592Z,92.30
2017-09-22T06:16:06.961Z,92.30
2017-09-22T06:19:08.901Z,92.10
2017-09-22T06:22:11.243Z,92.00
2017-09-22T06:25:13.333Z,92.10
2017-09-22T06:28:15.675Z,92.10
2017-09-22T06:31:17.613Z,92.00
2017-09-22T06:34:19.963Z,92.00
2017-09-22T06:37:21.885Z,91.80
2017-09-22T06:40:25.577Z,91.80
2017-09-22T06:43:27.506Z,91.80
2017-09-22T06:46:29.920Z,91.80
2017-09-22T06:49:31.950Z,91.70
2017-09-22T06:52:34.211Z,91.60
2017-09-22T06:55:36.154Z,91.50
2017-09-22T06:58:38.518Z,91.40
2017-09-22T07:01:40.513Z,91.30
2017-09-22T07:04:42.878Z,91.30
2017-09-22T07:07:44.822Z,91.20
2017-09-22T07:10:47.241Z,91.20
2017-09-22T07:13:49.322Z,91.10
2017-09-22T07:16:51.645Z,91.20
2017-09-22T07:19:53.789Z,91.00
2017-09-22T07:22:56.140Z,90.50
2017-09-22T07:25:58.101Z,90.20
2017-09-22T07:29:00.407Z,89.60
2017-09-22T07:32:02.403Z,86.70
2017-09-22T07:35:04.756Z,82.40
2017-09-22T07:38:06.697Z,77.30
2017-09-22T07:41:09.060Z,74.90
2017-09-22T07:44:11.028Z,74.40
2017-09-22T07:47:13.331Z,73.70
2017-09-22T07:50:16.039Z,69.50
2017-09-22T07:53:18.350Z,69.50
2017-09-22T07:56:20.336Z,67.70
2017-09-22T07:59:22.792Z,66.10
2017-09-22T08:02:25.689Z,65.30
2017-09-22T08:05:27.995Z,62.50
2017-09-22T08:08:30.694Z,52.70
2017-09-22T08:11:33.051Z,52.50
2017-09-22T08:14:34.995Z,47.60
2017-09-22T08:17:37.295Z,44.30
2017-09-22T08:20:39.244Z,42.20
2017-09-22T08:23:42.274Z,43.60
2017-09-22T08:26:44.232Z,43.60
2017-09-22T08:29:46.575Z,42.90
2017-09-22T08:32:48.531Z,40.80
2017-09-22T08:35:51.699Z,37.80
2017-09-22T08:38:53.649Z,36.40
2017-09-22T08:41:55.944Z,34.50
2017-09-22T08:44:57.959Z,32.40
2017-09-22T08:48:00.256Z,31.20
2017-09-22T08:51:02.273Z,29.80
2017-09-22T08:54:04.592Z,28.90
2017-09-22T08:57:07.591Z,29.60
2017-09-22T09:00:09.956Z,29.60
2017-09-22T09:03:12.006Z,29.50
2017-09-22T09:06:14.561Z,28.70
2017-09-22T09:09:16.510Z,27.60
2017-09-22T09:12:18.879Z,28.40
2017-09-22T09:15:21.748Z,30.20
2017-09-22T09:18:24.825Z,31.60
2017-09-22T09:21:26.876Z,35.30
2017-09-22T09:24:29.231Z,38.10
2017-09-22T09:27:31.233Z,40.10
2017-09-22T09:30:34.369Z,40.70
2017-09-22T09:33:36.493Z,40.60
2017-09-22T09:36:38.868Z,38.70
2017-09-22T09:39:40.799Z,34.70
2017-09-22T09:42:43.182Z,32.60
2017-09-22T09:45:45.130Z,30.50
2017-09-22T09:48:47.476Z,29.60
2017-09-22T09:51:49.429Z,29.30
2017-09-22T09:54:51.784Z,28.70
2017-09-22T09:57:53.915Z,28.10
2017-09-22T10:00:56.279Z,26.40
2017-09-22T10:03:58.260Z,26.70
2017-09-22T10:07:01.506Z,27.20
2017-09-22T10:10:03.464Z,27.20
2017-09-22T10:13:05.762Z,26.40
2017-09-22T10:16:07.768Z,26.40
2017-09-22T10:19:10.111Z,26.30
2017-09-22T10:22:12.076Z,27.60
2017-09-22T10:25:14.444Z,27.80
2017-09-22T10:28:17.305Z,28.20
2017-09-22T10:31:19.663Z,28.20
2017-09-22T10:34:21.601Z,28.00
2017-09-22T10:37:24.060Z,27.50
2017-09-22T10:40:26.126Z,28.00
2017-09-22T10:43:28.453Z,29.00
2017-09-22T10:46:30.398Z,30.00
2017-09-22T10:49:32.978Z,32.00
2017-09-22T10:52:35.405Z,34.80
2017-09-22T10:55:38.512Z,35.40
2017-09-22T10:58:40.568Z,35.40
2017-09-22T11:01:42.916Z,35.90
2017-09-22T11:04:44.901Z,32.70
2017-09-22T11:07:47.238Z,30.80
2017-09-22T11:10:49.308Z,30.50
2017-09-22T11:13:51.644Z,30.20
2017-09-22T11:16:53.578Z,29.50
2017-09-22T11:19:56.039Z,28.70
2017-09-22T11:22:58.088Z,28.90
2017-09-22T11:26:00.445Z,29.50
2017-09-22T11:29:02.398Z,30.00
2017-09-22T11:32:04.244Z,30.30
2017-09-22T11:35:07.204Z,32.30
2017-09-22T11:38:09.497Z,32.90
2017-09-22T11:41:11.533Z,32.80
2017-09-22T11:44:13.806Z,33.70
2017-09-22T11:47:15.818Z,33.20
2017-09-22T11:50:18.094Z,34.70
2017-09-22T11:53:20.134Z,36.20
2017-09-22T11:56:22.508Z,38.10
2017-09-22T11:59:24.554Z,40.50
2017-09-22T12:02:26.909Z,41.40
2017-09-22T12:05:29.034Z,42.30
2017-09-22T12:08:31.459Z,43.10
2017-09-22T12:11:33.401Z,43.80
2017-09-22T12:14:35.716Z,43.90
2017-09-22T12:17:37.662Z,43.90
2017-09-22T12:20:39.955Z,43.60
2017-09-22T12:23:41.915Z,42.60
2017-09-22T12:26:44.230Z,41.10
2017-09-22T12:29:46.281Z,37.50
2017-09-22T12:32:48.631Z,34.10
2017-09-22T12:35:50.593Z,30.80
2017-09-22T12:38:53.046Z,30.10
2017-09-22T12:41:55.009Z,30.40
2017-09-22T12:44:58.161Z,31.10
2017-09-22T12:48:00.133Z,30.70
2017-09-22T12:51:02.466Z,29.70
2017-09-22T12:54:04.419Z,30.10
2017-09-22T12:57:06.776Z,30.80
2017-09-22T13:00:08.925Z,30.80
2017-09-22T13:03:11.262Z,30.70
2017-09-22T13:06:13.235Z,30.10
2017-09-22T13:09:15.588Z,31.40
2017-09-22T13:12:17.550Z,32.00
2017-09-22T13:15:19.921Z,32.40
2017-09-22T13:18:21.968Z,31.10
2017-09-22T13:21:24.304Z,30.40
2017-09-22T13:24:26.349Z,29.70
2017-09-22T13:27:28.698Z,29.40
2017-09-22T13:30:30.667Z,29.30
2017-09-22T13:33:33.015Z,29.00
2017-09-22T13:36:34.961Z,28.10
2017-09-22T13:39:37.335Z,26.70
2017-09-22T13:42:39.402Z,26.60
2017-09-22T13:45:41.732Z,27.60
2017-09-22T13:48:43.673Z,29.30
2017-09-22T13:51:46.047Z,30.50
2017-09-22T13:54:49.526Z,31.50
2017-09-22T13:57:51.885Z,34.10
2017-09-22T14:00:53.832Z,36.20
2017-09-22T14:03:56.167Z,35.10
2017-09-22T14:06:58.087Z,37.30
2017-09-22T14:10:00.387Z,38.90
2017-09-22T14:13:02.340Z,40.40
2017-09-22T14:16:04.695Z,40.50
2017-09-22T14:19:06.640Z,40.70
2017-09-22T14:22:08.985Z,42.90
2017-09-22T14:25:10.935Z,43.30
2017-09-22T14:28:13.313Z,44.40
2017-09-22T14:31:15.268Z,44.30
2017-09-22T14:34:17.603Z,44.80
2017-09-22T14:37:20.273Z,45.10
2017-09-22T14:40:22.589Z,45.60
2017-09-22T14:43:24.571Z,45.60
2017-09-22T14:46:27.152Z,45.70
2017-09-22T14:49:29.272Z,45.80
2017-09-22T14:52:31.659Z,46.20
2017-09-22T14:55:33.609Z,46.30
2017-09-22T14:58:35.955Z,46.10
2017-09-22T15:01:37.904Z,46.30
2017-09-22T15:04:40.282Z,47.00
2017-09-22T15:07:42.324Z,47.80
2017-09-22T15:10:44.674Z,48.70
2017-09-22T15:13:46.600Z,49.30
2017-09-22T15:16:48.872Z,49.90
2017-09-22T15:19:50.828Z,50.70
2017-09-22T15:22:53.217Z,50.90
2017-09-22T15:25:55.241Z,51.50
2017-09-22T15:28:57.588Z,52.30
2017-09-22T15:31:59.517Z,52.90
2017-09-22T15:35:01.907Z,54.60
2017-09-22T15:38:03.938Z,56.40
2017-09-22T15:41:06.320Z,56.90
2017-09-22T15:44:08.361Z,57.80
2017-09-22T15:47:10.705Z,58.10
2017-09-22T15:50:12.647Z,58.60
2017-09-22T15:53:15.008Z,59.00
2017-09-22T15:56:16.973Z,59.80
2017-09-22T15:59:19.424Z,61.00
2017-09-22T16:02:21.480Z,62.10
2017-09-22T16:05:23.959Z,63.20
2017-09-22T16:08:25.903Z,63.40
2017-09-22T16:11:28.451Z,63.30
2017-09-22T16:14:30.493Z,64.10
2017-09-22T16:17:32.859Z,64.80
2017-09-22T16:20:35.835Z,65.20
2017-09-22T16:23:38.286Z,66.00
2017-09-22T16:26:40.220Z,66.80
2017-09-22T16:29:42.606Z,67.20
2017-09-22T16:32:44.551Z,67.60
2017-09-22T16:35:46.892Z,68.50
2017-09-22T16:38:48.833Z,69.80
2017-09-22T16:41:51.199Z,69.90
2017-09-22T16:44:53.242Z,71.00
2017-09-22T16:47:55.552Z,71.20
2017-09-22T16:50:57.544Z,71.60
2017-09-22T16:53:59.924Z,72.40
2017-09-22T16:57:01.999Z,72.80
2017-09-22T17:00:05.867Z,72.10
2017-09-22T17:03:07.865Z,72.00
2017-09-22T17:06:11.002Z,74.10
2017-09-22T17:09:12.943Z,73.30
2017-09-22T17:12:15.308Z,74.20
2017-09-22T17:15:17.285Z,74.90
2017-09-22T17:18:20.339Z,76.10
2017-09-22T17:21:22.264Z,76.10
2017-09-22T17:24:24.634Z,76.20
2017-09-22T17:27:26.680Z,76.20
2017-09-22T17:30:29.029Z,76.60
2017-09-22T17:33:31.076Z,77.00
2017-09-22T17:36:33.353Z,77.30
2017-09-22T17:39:35.298Z,77.80
2017-09-22T17:42:37.630Z,78.10
2017-09-22T17:45:39.580Z,78.30
2017-09-22T17:48:42.051Z,78.90
2017-09-22T17:51:44.113Z,79.30
2017-09-22T17:54:46.450Z,79.70
2017-09-22T17:57:48.524Z,80.20
2017-09-22T18:00:50.800Z,80.80
2017-09-22T18:03:52.816Z,81.30
2017-09-22T18:06:56.721Z,82.00
2017-09-22T18:09:58.753Z,81.90
2017-09-22T18:13:01.207Z,82.00
2017-09-22T18:16:03.174Z,82.00
2017-09-22T18:19:05.512Z,82.00
2017-09-22T18:22:08.246Z,82.20
2017-09-22T18:25:11.376Z,83.00
2017-09-22T18:28:13.331Z,83.10
2017-09-22T18:31:15.702Z,83.50
2017-09-22T18:34:17.715Z,83.80
2017-09-22T18:37:20.083Z,84.40
2017-09-22T18:40:22.131Z,85.00
2017-09-22T18:43:24.423Z,85.60
2017-09-22T18:46:26.456Z,86.00
2017-09-22T18:49:28.792Z,86.40
2017-09-22T18:52:30.745Z,86.60
2017-09-22T18:55:33.093Z,86.90
2017-09-22T18:58:35.045Z,87.00
2017-09-22T19:01:37.455Z,87.20
2017-09-22T19:04:40.840Z,87.90
2017-09-22T19:07:44.112Z,87.70
2017-09-22T19:10:46.945Z,88.40
2017-09-22T19:13:49.310Z,87.70
2017-09-22T19:16:52.057Z,87.80
2017-09-22T19:19:54.408Z,87.90
2017-09-22T19:22:57.404Z,88.20
2017-09-22T19:25:59.761Z,88.20
2017-09-22T19:29:01.817Z,88.30
2017-09-22T19:32:04.158Z,88.60
2017-09-22T19:35:06.739Z,88.80
2017-09-22T19:38:09.076Z,89.00
2017-09-22T19:41:11.136Z,89.10
2017-09-22T19:44:13.504Z,89.40
2017-09-22T19:47:15.449Z,89.70
2017-09-22T19:50:17.819Z,89.80
2017-09-22T19:53:19.766Z,90.00
2017-09-22T19:56:22.125Z,90.10
2017-09-22T19:59:24.154Z,90.20
2017-09-22T20:02:26.431Z,90.30
2017-09-22T20:05:28.447Z,90.40
2017-09-22T20:08:30.736Z,90.80
2017-09-22T20:11:33.538Z,90.60
2017-09-22T20:14:37.407Z,90.60
2017-09-22T20:17:41.385Z,90.60
2017-09-22T20:20:43.704Z,90.70
2017-09-22T20:23:45.768Z,90.80
2017-09-22T20:26:48.118Z,90.90
2017-09-22T20:29:50.087Z,91.10
2017-09-22T20:32:52.431Z,91.20
2017-09-22T20:35:55.259Z,91.30
2017-09-22T20:38:58.397Z,91.40
2017-09-22T20:42:00.418Z,91.40
2017-09-22T20:45:02.770Z,91.40
2017-09-22T20:48:04.803Z,91.40
2017-09-22T20:51:07.192Z,91.40
2017-09-22T20:54:09.160Z,91.40
2017-09-22T20:57:11.490Z,91.40
2017-09-22T21:00:13.447Z,91.30
2017-09-22T21:03:15.843Z,91.30
2017-09-22T21:06:17.846Z,91.20
2017-09-22T21:09:20.208Z,91.10
2017-09-22T21:12:22.161Z,91.10
2017-09-22T21:15:24.616Z,91.10
2017-09-22T21:18:27.400Z,91.20
2017-09-22T21:21:29.692Z,91.20
2017-09-22T21:24:32.518Z,91.80
2017-09-22T21:27:34.800Z,91.50
2017-09-22T21:30:36.753Z,91.70
2017-09-22T21:33:39.366Z,91.70
2017-09-22T21:36:41.306Z,91.70
2017-09-22T21:39:43.694Z,91.70
2017-09-22T21:42:45.655Z,91.80
2017-09-22T21:45:48.187Z,91.80
2017-09-22T21:48:50.295Z,91.80
2017-09-22T21:51:52.723Z,91.90
2017-09-22T21:54:54.664Z,91.90
2017-09-22T21:57:56.999Z,91.90
2017-09-22T22:00:58.947Z,92.00
2017-09-22T22:04:01.317Z,91.90
2017-09-22T22:07:03.368Z,91.90
2017-09-22T22:10:06.545Z,92.00
2017-09-22T22:13:08.500Z,92.00
2017-09-22T22:16:10.804Z,91.90
2017-09-22T22:19:13.609Z,91.80
2017-09-22T22:22:16.050Z,91.80
2017-09-22T22:25:17.993Z,91.70
2017-09-22T22:28:20.371Z,91.70
2017-09-22T22:31:22.451Z,91.70
2017-09-22T22:34:24.796Z,91.60
2017-09-22T22:37:30.554Z,91.60
2017-09-22T22:40:32.885Z,91.60
2017-09-22T22:43:34.932Z,91.60
2017-09-22T22:46:37.292Z,91.60
2017-09-22T22:49:39.481Z,91.60
2017-09-22T22:52:41.788Z,91.60
2017-09-22T22:55:43.722Z,91.70
2017-09-22T22:58:46.113Z,91.60
2017-09-22T23:01:48.082Z,91.70
2017-09-22T23:04:50.500Z,91.80
2017-09-22T23:07:52.448Z,91.70
2017-09-22T23:10:54.807Z,91.60
2017-09-22T23:13:57.388Z,91.60
2017-09-22T23:16:59.730Z,91.60
2017-09-22T23:20:01.827Z,91.60
2017-09-22T23:23:04.339Z,91.90
2017-09-22T23:26:06.276Z,91.60
2017-09-22T23:29:08.752Z,91.70
2017-09-22T23:32:10.721Z,91.90
2017-09-22T23:35:13.059Z,91.90
2017-09-22T23:38:15.008Z,92.00
2017-09-22T23:41:17.273Z,92.10
2017-09-22T23:44:19.518Z,92.10
2017-09-22T23:47:21.917Z,92.10
2017-09-22T23:50:23.863Z,92.10
2017-09-22T23:53:26.196Z,92.10
2017-09-22T23:56:28.226Z,92.50
2017-09-22T23:59:30.596Z,92.20
